createdAt,value
2022-12-04T00:00:45.962Z,84.15
2022-12-04T00:02:54.987Z,84.29
2022-12-04T00:04:56.846Z,86.56
2022-12-04T00:06:59.291Z,84.16
2022-12-04T00:09:01.208Z,82.76
2022-12-04T00:11:07.237Z,84.36
2022-12-04T00:13:09.751Z,84.71
2022-12-04T00:15:27.248Z,85.08
2022-12-04T00:17:29.474Z,85.80
2022-12-04T00:19:31.245Z,86.07
2022-12-04T00:21:34.731Z,86.29
2022-12-04T00:23:38.215Z,84.67
2022-12-04T00:25:41.485Z,83.40
2022-12-04T00:27:43.836Z,83.80
2022-12-04T00:29:45.762Z,83.53
2022-12-04T00:31:47.731Z,84.90
2022-12-04T00:33:49.976Z,84.11
2022-12-04T00:35:59.394Z,84.63
2022-12-04T00:38:01.185Z,84.68
2022-12-04T00:40:03.576Z,85.88
2022-12-04T00:42:05.448Z,86.29
2022-12-04T00:44:07.765Z,84.98
2022-12-04T00:46:10.103Z,83.63
2022-12-04T00:48:12.353Z,84.65
2022-12-04T00:50:14.493Z,83.00
2022-12-04T00:52:16.475Z,83.69
2022-12-04T00:54:18.326Z,84.62
2022-12-04T00:56:24.380Z,83.85
2022-12-04T00:58:26.243Z,84.53
2022-12-04T01:00:28.079Z,83.87
2022-12-04T01:02:30.706Z,83.83
2022-12-04T01:04:32.664Z,84.73
2022-12-04T01:06:35.370Z,83.83
2022-12-04T01:08:37.529Z,86.34
2022-12-04T01:10:41.250Z,85.77
2022-12-04T01:12:43.095Z,86.22
2022-12-04T01:14:45.262Z,86.39
2022-12-04T01:16:47.537Z,85.49
2022-12-04T01:18:50.329Z,85.23
2022-12-04T01:20:52.791Z,85.52
2022-12-04T01:22:54.864Z,83.48
2022-12-04T01:24:57.540Z,84.88
2022-12-04T01:26:59.400Z,84.68
2022-12-04T01:29:01.948Z,83.28
2022-12-04T01:31:05.974Z,83.58
2022-12-04T01:33:07.652Z,83.11
2022-12-04T01:35:09.621Z,83.24
2022-12-04T01:37:11.736Z,83.91
2022-12-04T01:39:13.524Z,83.38
2022-12-04T01:41:18.441Z,83.08
2022-12-04T01:43:21.324Z,82.69
2022-12-04T01:45:47.869Z,83.28
2022-12-04T01:47:50.196Z,81.96
2022-12-04T01:49:52.000Z,81.55
2022-12-04T01:52:02.416Z,83.00
2022-12-04T01:54:21.982Z,82.43
2022-12-04T01:56:31.280Z,82.17
2022-12-04T01:58:40.185Z,83.47
2022-12-04T02:00:42.514Z,83.52
2022-12-04T02:02:48.536Z,84.00
2022-12-04T02:04:51.009Z,83.35
2022-12-04T02:06:52.836Z,83.20
2022-12-04T02:08:55.024Z,83.95
2022-12-04T02:11:37.583Z,84.02
2022-12-04T02:13:48.931Z,83.63
2022-12-04T02:15:56.648Z,84.93
2022-12-04T02:18:13.004Z,83.97
2022-12-04T02:20:22.542Z,83.67
2022-12-04T02:22:30.475Z,82.60
2022-12-04T02:24:53.632Z,83.05
2022-12-04T02:26:58.849Z,83.09
2022-12-04T02:29:11.747Z,82.53
2022-12-04T02:31:20.656Z,81.97
2022-12-04T02:33:28.883Z,82.83
2022-12-04T02:35:42.593Z,83.23
2022-12-04T02:37:49.589Z,82.94
2022-12-04T02:39:56.735Z,85.15
2022-12-04T02:42:01.828Z,85.43
2022-12-04T02:44:22.168Z,85.46
2022-12-04T02:46:34.657Z,83.84
2022-12-04T02:48:41.318Z,82.76
2022-12-04T02:50:44.334Z,82.55
2022-12-04T02:52:48.380Z,82.62
2022-12-04T02:54:57.620Z,82.78
2022-12-04T02:57:01.712Z,81.59
2022-12-04T02:59:12.673Z,83.00
2022-12-04T03:01:20.832Z,82.82
2022-12-04T03:03:28.424Z,83.33
2022-12-04T03:05:47.867Z,82.17
2022-12-04T03:07:58.066Z,83.08
2022-12-04T03:10:07.041Z,83.50
2022-12-04T03:12:29.723Z,83.55
2022-12-04T03:14:35.538Z,83.22
2022-12-04T03:16:41.670Z,82.63
2022-12-04T03:19:02.425Z,83.78
2022-12-04T03:21:12.900Z,83.61
2022-12-04T03:23:32.705Z,83.56
2022-12-04T03:25:49.203Z,82.31
2022-12-04T03:28:00.875Z,81.91
2022-12-04T03:30:16.535Z,80.81
2022-12-04T03:32:31.625Z,81.31
2022-12-04T03:34:51.488Z,81.72
2022-12-04T03:36:58.859Z,81.87
2022-12-04T03:39:06.006Z,81.43
2022-12-04T03:41:19.215Z,82.03
2022-12-04T03:43:29.191Z,83.35
2022-12-04T03:45:45.033Z,83.38
2022-12-04T03:47:55.378Z,84.17
2022-12-04T03:50:13.200Z,82.02
2022-12-04T03:52:20.694Z,83.05
2022-12-04T03:54:32.317Z,81.86
2022-12-04T03:56:41.426Z,82.16
2022-12-04T03:58:48.798Z,81.86
2022-12-04T04:00:53.293Z,81.92
2022-12-04T04:03:00.925Z,82.88
2022-12-04T04:05:07.110Z,82.35
2022-12-04T04:07:17.201Z,83.42
2022-12-04T04:09:24.373Z,82.30
2022-12-04T04:11:41.779Z,81.82
2022-12-04T04:14:11.111Z,82.83
2022-12-04T04:16:35.643Z,81.78
2022-12-04T04:18:58.533Z,83.00
2022-12-04T04:21:20.403Z,83.45
2022-12-04T04:23:42.028Z,84.45
2022-12-04T04:25:46.717Z,83.42
2022-12-04T04:27:53.728Z,83.22
2022-12-04T04:29:56.125Z,83.72
2022-12-04T04:32:03.545Z,83.10
2022-12-04T04:34:30.082Z,82.06
2022-12-04T04:36:49.856Z,83.11
2022-12-04T04:39:04.338Z,84.62
2022-12-04T04:41:39.848Z,82.68
2022-12-04T04:43:52.147Z,83.78
2022-12-04T04:46:00.382Z,82.64
2022-12-04T04:48:13.692Z,82.93
2022-12-04T04:50:17.518Z,82.91
2022-12-04T04:52:22.343Z,82.35
2022-12-04T04:54:25.256Z,81.82
2022-12-04T04:56:28.417Z,81.79
2022-12-04T04:58:30.411Z,84.81
2022-12-04T05:00:32.225Z,84.70
2022-12-04T05:02:34.613Z,83.89
2022-12-04T05:04:36.444Z,83.88
2022-12-04T05:06:38.339Z,84.63
2022-12-04T05:08:40.875Z,84.67
2022-12-04T05:10:42.917Z,84.59
2022-12-04T05:12:44.668Z,84.89
2022-12-04T05:14:48.422Z,82.90
2022-12-04T05:16:50.228Z,82.07
2022-12-04T05:19:10.658Z,83.38
2022-12-04T05:21:16.979Z,83.08
2022-12-04T05:23:18.911Z,82.15
2022-12-04T05:25:20.700Z,81.71
2022-12-04T05:27:23.683Z,80.00
2022-12-04T05:29:25.555Z,82.44
2022-12-04T05:31:27.407Z,82.25
2022-12-04T05:33:31.029Z,80.98
2022-12-04T05:35:32.973Z,80.46
2022-12-04T05:37:39.340Z,80.14
2022-12-04T05:39:41.616Z,81.51
2022-12-04T05:41:43.369Z,80.66
2022-12-04T05:43:45.251Z,79.78
2022-12-04T05:45:47.384Z,80.66
2022-12-04T05:47:49.162Z,81.32
2022-12-04T05:49:50.995Z,80.51
2022-12-04T05:51:53.192Z,81.50
2022-12-04T05:53:54.987Z,80.85
2022-12-04T05:55:58.854Z,81.60
2022-12-04T05:58:01.229Z,81.20
2022-12-04T06:00:04.103Z,80.29
2022-12-04T06:02:06.297Z,79.62
2022-12-04T06:04:08.423Z,79.60
2022-12-04T06:06:20.709Z,80.39
2022-12-04T06:08:23.376Z,80.51
2022-12-04T06:10:25.161Z,80.92
2022-12-04T06:12:27.345Z,80.69
2022-12-04T06:14:29.176Z,80.49
2022-12-04T06:16:34.164Z,79.09
2022-12-04T06:18:36.416Z,79.35
2022-12-04T06:20:38.344Z,80.18
2022-12-04T06:22:40.207Z,81.58
2022-12-04T06:24:42.325Z,81.20
2022-12-04T06:27:10.982Z,80.43
2022-12-04T06:29:06.630Z,81.35
2022-12-04T06:31:11.318Z,81.54
2022-12-04T06:33:13.116Z,80.91
2022-12-04T06:35:15.417Z,79.90
2022-12-04T06:37:17.259Z,80.93
2022-12-04T06:39:19.333Z,80.17
2022-12-04T06:41:22.289Z,80.56
2022-12-04T06:43:24.677Z,79.85
2022-12-04T06:45:26.591Z,80.23
2022-12-04T06:47:28.831Z,80.25
2022-12-04T06:49:30.824Z,81.25
2022-12-04T06:51:35.623Z,82.05
2022-12-04T06:53:38.204Z,80.90
2022-12-04T06:55:40.116Z,81.20
2022-12-04T06:57:41.877Z,80.32
2022-12-04T06:59:44.045Z,80.29
2022-12-04T07:01:45.948Z,82.95
2022-12-04T07:03:51.602Z,83.46
2022-12-04T07:05:54.101Z,80.66
2022-12-04T07:07:55.942Z,81.72
2022-12-04T07:09:58.287Z,80.82
2022-12-04T07:12:00.618Z,81.00
2022-12-04T07:14:03.408Z,81.19
2022-12-04T07:16:08.040Z,81.60
2022-12-04T07:18:10.310Z,82.65
2022-12-04T07:20:12.528Z,82.05
2022-12-04T07:22:14.783Z,81.07
2022-12-04T07:24:17.666Z,81.84
2022-12-04T07:26:19.875Z,81.20
2022-12-04T07:28:21.996Z,80.97
2022-12-04T07:30:23.868Z,80.74
2022-12-04T07:32:25.671Z,80.92
2022-12-04T07:34:27.828Z,79.62
2022-12-04T07:36:29.592Z,80.24
2022-12-04T07:38:32.468Z,81.84
2022-12-04T07:40:34.636Z,79.68
2022-12-04T07:42:36.423Z,78.85
2022-12-04T07:44:38.641Z,80.29
2022-12-04T07:46:40.468Z,81.12
2022-12-04T07:48:43.022Z,80.02
2022-12-04T07:50:45.273Z,80.89
2022-12-04T07:52:47.023Z,80.64
2022-12-04T07:54:49.483Z,80.08
2022-12-04T07:56:51.632Z,78.84
2022-12-04T07:58:53.876Z,78.30
2022-12-04T08:00:55.731Z,79.16
2022-12-04T08:02:57.742Z,79.34
2022-12-04T08:04:59.918Z,80.45
2022-12-04T08:07:01.850Z,79.15
2022-12-04T08:09:09.715Z,76.80
2022-12-04T08:11:15.121Z,76.29
2022-12-04T08:13:16.905Z,76.45
2022-12-04T08:15:19.185Z,77.67
2022-12-04T08:17:21.050Z,76.18
2022-12-04T08:19:23.430Z,77.95
2022-12-04T08:21:28.168Z,77.78
2022-12-04T08:23:30.005Z,77.46
2022-12-04T08:25:32.148Z,78.05
2022-12-04T08:27:34.815Z,78.68
2022-12-04T08:29:37.010Z,76.87
2022-12-04T08:31:39.187Z,78.32
2022-12-04T08:33:43.252Z,77.54
2022-12-04T08:35:45.101Z,77.80
2022-12-04T08:37:47.260Z,78.14
2022-12-04T08:39:49.437Z,77.84
2022-12-04T08:41:55.407Z,78.41
2022-12-04T08:43:59.704Z,78.30
2022-12-04T08:46:05.021Z,78.33
2022-12-04T08:48:07.078Z,77.66
2022-12-04T08:50:09.594Z,77.69
2022-12-04T08:52:11.649Z,77.72
2022-12-04T08:54:13.807Z,76.86
2022-12-04T08:56:15.667Z,77.24
2022-12-04T08:58:17.638Z,76.21
2022-12-04T09:00:20.172Z,78.64
2022-12-04T09:02:21.965Z,76.29
2022-12-04T09:04:24.234Z,76.79
2022-12-04T09:06:26.482Z,77.04
2022-12-04T09:08:28.779Z,77.73
2022-12-04T09:10:30.938Z,76.82
2022-12-04T09:12:32.730Z,74.82
2022-12-04T09:14:34.946Z,75.99
2022-12-04T09:16:36.786Z,77.89
2022-12-04T09:18:39.611Z,80.39
2022-12-04T09:20:41.912Z,79.69
2022-12-04T09:23:02.714Z,78.99
2022-12-04T09:25:06.467Z,78.80
2022-12-04T09:27:14.300Z,77.04
2022-12-04T09:29:16.925Z,76.84
2022-12-04T09:31:20.061Z,76.09
2022-12-04T09:33:22.071Z,76.47
2022-12-04T09:35:24.621Z,77.11
2022-12-04T09:37:26.450Z,75.90
2022-12-04T09:39:28.604Z,76.98
2022-12-04T09:41:36.439Z,75.34
2022-12-04T09:43:51.395Z,76.50
2022-12-04T09:45:58.600Z,75.70
2022-12-04T09:48:01.388Z,76.67
2022-12-04T09:50:21.683Z,76.53
2022-12-04T09:52:47.250Z,76.27
2022-12-04T09:54:52.076Z,75.42
2022-12-04T09:56:59.285Z,75.58
2022-12-04T09:59:12.911Z,74.89
2022-12-04T10:01:26.976Z,73.93
2022-12-04T10:03:30.602Z,75.14
2022-12-04T10:05:45.947Z,76.23
2022-12-04T10:08:25.038Z,76.72
2022-12-04T10:10:37.166Z,76.98
2022-12-04T10:12:59.448Z,75.92
2022-12-04T10:15:07.463Z,75.58
2022-12-04T10:17:32.439Z,75.42
2022-12-04T10:19:42.567Z,75.36
2022-12-04T10:22:02.210Z,74.95
2022-12-04T10:24:33.694Z,75.72
2022-12-04T10:26:44.051Z,75.49
2022-12-04T10:29:01.755Z,75.66
2022-12-04T10:31:06.244Z,75.39
2022-12-04T10:33:28.246Z,75.17
2022-12-04T10:35:35.343Z,75.29
2022-12-04T10:37:41.751Z,75.83
2022-12-04T10:39:58.369Z,75.83
2022-12-04T10:42:19.575Z,74.05
2022-12-04T10:44:21.639Z,75.25
2022-12-04T10:46:29.693Z,75.37
2022-12-04T10:48:36.721Z,74.41
2022-12-04T10:50:40.541Z,74.47
2022-12-04T10:52:42.364Z,73.91
2022-12-04T10:54:51.954Z,73.39
2022-12-04T10:57:02.227Z,74.93
2022-12-04T10:59:05.918Z,73.54
2022-12-04T11:01:16.790Z,73.58
2022-12-04T11:03:27.698Z,74.14
2022-12-04T11:05:46.342Z,76.70
2022-12-04T11:07:49.551Z,76.09
2022-12-04T11:09:58.829Z,77.01
2022-12-04T11:12:16.967Z,74.53
2022-12-04T11:14:23.115Z,73.53
2022-12-04T11:16:40.571Z,74.13
2022-12-04T11:18:49.162Z,74.12
2022-12-04T11:21:22.830Z,74.71
2022-12-04T11:23:26.712Z,75.79
2022-12-04T11:25:37.042Z,75.85
2022-12-04T11:27:39.218Z,75.28
2022-12-04T11:29:45.951Z,74.32
2022-12-04T11:31:50.936Z,74.78
2022-12-04T11:33:57.712Z,75.39
2022-12-04T11:36:04.401Z,76.11
2022-12-04T11:38:17.681Z,75.59
2022-12-04T11:40:20.851Z,76.65
2022-12-04T11:42:30.808Z,76.38
2022-12-04T11:44:35.886Z,74.20
2022-12-04T11:46:37.728Z,75.16
2022-12-04T11:48:45.243Z,76.46
2022-12-04T11:51:13.877Z,76.74
2022-12-04T11:53:21.989Z,76.88
2022-12-04T11:55:52.137Z,76.73
2022-12-04T11:58:16.952Z,76.47
2022-12-04T12:00:23.538Z,76.35
2022-12-04T12:02:36.364Z,76.46
2022-12-04T12:05:08.268Z,76.02
2022-12-04T12:07:30.546Z,75.09
2022-12-04T12:09:55.864Z,74.76
2022-12-04T12:12:21.935Z,77.65
2022-12-04T12:14:44.626Z,76.98
2022-12-04T12:19:17.179Z,76.19
2022-12-04T12:21:52.874Z,74.82
2022-12-04T12:24:09.887Z,77.08
2022-12-04T12:26:15.089Z,77.63
2022-12-04T12:28:34.602Z,79.98
2022-12-04T12:30:42.893Z,77.81
2022-12-04T12:32:58.355Z,75.31
2022-12-04T12:35:00.927Z,77.27
2022-12-04T12:37:11.618Z,77.78
2022-12-04T12:39:40.330Z,77.56
2022-12-04T12:41:53.237Z,77.85
2022-12-04T12:44:04.919Z,78.75
2022-12-04T12:46:14.362Z,79.21
2022-12-04T12:48:35.876Z,78.42
2022-12-04T12:51:08.868Z,77.97
2022-12-04T12:53:13.953Z,78.57
2022-12-04T12:55:31.302Z,77.34
2022-12-04T12:57:39.545Z,76.77
2022-12-04T12:59:47.697Z,77.42
2022-12-04T13:02:03.559Z,76.20
2022-12-04T13:04:23.661Z,76.53
2022-12-04T13:06:31.748Z,77.71
2022-12-04T13:08:53.778Z,76.97
2022-12-04T13:11:18.051Z,77.70
2022-12-04T13:13:30.062Z,75.70
2022-12-04T13:15:42.380Z,76.58
2022-12-04T13:17:46.859Z,77.00
2022-12-04T13:19:54.086Z,76.13
2022-12-04T13:22:11.167Z,77.43
2022-12-04T13:24:35.157Z,76.89
2022-12-04T13:26:49.936Z,76.76
2022-12-04T13:29:01.621Z,77.39
2022-12-04T13:31:09.446Z,77.34
2022-12-04T13:33:32.826Z,78.84
2022-12-04T13:35:34.554Z,78.90
2022-12-04T13:38:13.168Z,78.56
2022-12-04T13:40:29.378Z,78.72
2022-12-04T13:42:32.065Z,77.80
2022-12-04T13:44:35.709Z,76.83
2022-12-04T13:46:42.666Z,78.72
2022-12-04T13:48:44.434Z,77.32
2022-12-04T13:50:46.261Z,76.05
2022-12-04T13:52:49.470Z,77.60
2022-12-04T13:54:59.428Z,77.03
2022-12-04T13:57:30.440Z,77.67
2022-12-04T13:59:37.336Z,78.08
2022-12-04T14:01:44.856Z,75.44
2022-12-04T14:03:49.920Z,76.43
2022-12-04T14:05:52.834Z,75.68
2022-12-04T14:08:07.730Z,76.69
2022-12-04T14:10:15.634Z,76.69
2022-12-04T14:12:18.390Z,77.08
2022-12-04T14:14:31.758Z,78.17
2022-12-04T14:16:42.367Z,76.81
2022-12-04T14:18:51.119Z,76.89
2022-12-04T14:21:02.090Z,78.45
2022-12-04T14:23:26.687Z,77.94
2022-12-04T14:25:39.249Z,77.96
2022-12-04T14:27:41.090Z,77.73
2022-12-04T14:29:54.726Z,79.47
2022-12-04T14:32:00.792Z,78.74
2022-12-04T14:34:27.267Z,78.56
2022-12-04T14:36:36.338Z,77.89
2022-12-04T14:38:38.957Z,78.87
2022-12-04T14:40:49.293Z,77.90
2022-12-04T14:42:52.491Z,78.10
2022-12-04T14:45:00.338Z,78.60
2022-12-04T14:47:23.087Z,78.25
2022-12-04T14:49:46.809Z,78.32
2022-12-04T14:52:03.330Z,77.87
2022-12-04T14:54:26.863Z,77.98
2022-12-04T14:56:54.385Z,77.31
2022-12-04T14:58:57.934Z,78.00
2022-12-04T15:01:33.494Z,77.54
2022-12-04T15:03:43.087Z,78.55
2022-12-04T15:05:45.423Z,78.51
2022-12-04T15:07:54.631Z,78.50
2022-12-04T15:10:17.486Z,77.34
2022-12-04T15:12:35.637Z,77.99
2022-12-04T15:14:51.943Z,77.12
2022-12-04T15:17:02.911Z,78.35
2022-12-04T15:19:05.231Z,79.06
2022-12-04T15:21:12.758Z,78.01
2022-12-04T15:23:18.991Z,77.19
2022-12-04T15:25:31.618Z,77.91
2022-12-04T15:27:35.100Z,76.63
2022-12-04T15:29:41.454Z,78.84
2022-12-04T15:31:49.236Z,78.51
2022-12-04T15:33:55.483Z,76.57
2022-12-04T15:36:08.590Z,78.02
2022-12-04T15:38:14.663Z,78.20
2022-12-04T15:40:24.607Z,76.64
2022-12-04T15:42:29.194Z,77.00
2022-12-04T15:44:34.681Z,76.37
2022-12-04T15:46:38.390Z,77.67
2022-12-04T15:48:43.883Z,77.26
2022-12-04T15:50:56.543Z,78.50
2022-12-04T15:53:06.335Z,78.22
2022-12-04T15:55:09.239Z,78.63
2022-12-04T15:57:23.297Z,76.55
2022-12-04T15:59:27.212Z,75.45
2022-12-04T16:01:39.883Z,75.30
2022-12-04T16:03:42.161Z,75.47
2022-12-04T16:05:44.017Z,75.13
2022-12-04T16:07:50.073Z,76.38
2022-12-04T16:10:02.586Z,76.57
2022-12-04T16:12:18.961Z,76.42
2022-12-04T16:14:21.270Z,76.14
2022-12-04T16:16:23.180Z,75.25
2022-12-04T16:18:25.227Z,75.83
2022-12-04T16:20:27.622Z,75.91
2022-12-04T16:22:31.461Z,75.19
2022-12-04T16:24:33.994Z,77.14
2022-12-04T16:26:35.873Z,77.77
2022-12-04T16:28:37.678Z,77.19
2022-12-04T16:30:39.971Z,78.13
2022-12-04T16:32:41.798Z,78.85
2022-12-04T16:34:44.553Z,78.86
2022-12-04T16:36:46.536Z,78.89
2022-12-04T16:38:48.734Z,77.90
2022-12-04T16:40:50.554Z,78.29
2022-12-04T16:42:53.672Z,79.45
2022-12-04T16:44:57.758Z,79.41
2022-12-04T16:46:59.847Z,78.26
2022-12-04T16:49:07.216Z,80.46
2022-12-04T16:51:17.798Z,78.48
2022-12-04T16:53:22.471Z,78.45
2022-12-04T16:55:30.953Z,77.76
2022-12-04T16:57:32.739Z,76.53
2022-12-04T16:59:35.803Z,76.23
2022-12-04T17:01:47.461Z,74.85
2022-12-04T17:03:50.231Z,74.49
2022-12-04T17:05:52.427Z,73.62
2022-12-04T17:07:56.159Z,75.22
2022-12-04T17:09:58.671Z,75.78
2022-12-04T17:12:00.449Z,76.23
2022-12-04T17:14:07.010Z,76.66
2022-12-04T17:16:10.631Z,76.26
2022-12-04T17:18:20.745Z,74.68
2022-12-04T17:20:23.262Z,73.84
2022-12-04T17:22:28.203Z,74.29
2022-12-04T17:24:29.986Z,75.36
2022-12-04T17:26:32.250Z,76.96
2022-12-04T17:28:34.587Z,77.20
2022-12-04T17:30:36.729Z,75.80
2022-12-04T17:32:39.023Z,76.12
2022-12-04T17:34:40.814Z,75.45
2022-12-04T17:36:42.735Z,75.77
2022-12-04T17:38:45.359Z,76.66
2022-12-04T17:41:01.215Z,75.13
2022-12-04T17:43:03.343Z,76.39
2022-12-04T17:45:06.190Z,76.57
2022-12-04T17:47:08.093Z,75.08
2022-12-04T17:49:10.048Z,75.40
2022-12-04T17:51:15.915Z,74.80
2022-12-04T17:53:18.022Z,74.36
2022-12-04T17:55:19.846Z,74.14
2022-12-04T17:57:22.618Z,72.75
2022-12-04T17:59:24.798Z,73.05
2022-12-04T18:01:28.467Z,75.59
2022-12-04T18:03:30.827Z,75.64
2022-12-04T18:05:33.019Z,76.40
2022-12-04T18:07:34.849Z,76.04
2022-12-04T18:09:37.311Z,75.95
2022-12-04T18:11:41.586Z,74.34
2022-12-04T18:13:43.529Z,74.34
2022-12-04T18:15:45.704Z,74.30
2022-12-04T18:17:47.589Z,73.99
2022-12-04T18:19:49.708Z,73.08
2022-12-04T18:21:52.125Z,75.69
2022-12-04T18:23:57.664Z,75.23
2022-12-04T18:26:01.400Z,75.99
2022-12-04T18:28:03.703Z,75.07
2022-12-04T18:30:06.819Z,75.21
2022-12-04T18:32:09.282Z,74.90
2022-12-04T18:34:11.504Z,74.70
2022-12-04T18:36:22.043Z,77.95
2022-12-04T18:38:27.249Z,77.27
2022-12-04T18:40:29.415Z,76.54
2022-12-04T18:42:31.742Z,77.96
2022-12-04T18:44:33.609Z,76.53
2022-12-04T18:46:35.993Z,75.33
2022-12-04T18:48:38.990Z,74.76
2022-12-04T18:50:41.265Z,76.27
2022-12-04T18:52:44.813Z,75.13
2022-12-04T18:54:46.627Z,73.55
2022-12-04T18:56:50.061Z,73.61
2022-12-04T18:58:58.389Z,75.30
2022-12-04T19:01:06.691Z,74.74
2022-12-04T19:03:10.895Z,75.27
2022-12-04T19:05:13.287Z,73.66
2022-12-04T19:07:15.662Z,74.07
2022-12-04T19:09:20.548Z,74.99
2022-12-04T19:11:22.410Z,74.89
2022-12-04T19:13:25.643Z,74.67
2022-12-04T19:15:27.453Z,76.04
2022-12-04T19:17:29.578Z,75.28
2022-12-04T19:19:32.860Z,75.03
2022-12-04T19:21:34.711Z,74.24
2022-12-04T19:23:36.957Z,74.38
2022-12-04T19:25:38.909Z,75.40
2022-12-04T19:27:40.717Z,74.74
2022-12-04T19:29:43.539Z,74.73
2022-12-04T19:31:46.654Z,74.88
2022-12-04T19:33:48.486Z,74.01
2022-12-04T19:36:09.287Z,72.56
2022-12-04T19:38:11.111Z,75.49
2022-12-04T19:40:16.645Z,74.54
2022-12-04T19:42:18.466Z,75.01
2022-12-04T19:44:47.941Z,75.93
2022-12-04T19:46:45.184Z,76.93
2022-12-04T19:48:52.967Z,75.48
2022-12-04T19:50:54.864Z,76.82
2022-12-04T19:52:56.793Z,77.40
2022-12-04T19:55:01.100Z,75.73
2022-12-04T19:57:03.087Z,76.71
2022-12-04T19:59:07.267Z,75.75
2022-12-04T20:01:12.845Z,75.87
2022-12-04T20:03:14.763Z,75.58
2022-12-04T20:05:16.631Z,74.59
2022-12-04T20:07:21.510Z,73.50
2022-12-04T20:09:24.804Z,74.59
2022-12-04T20:11:28.582Z,73.98
2022-12-04T20:13:30.922Z,73.26
2022-12-04T20:15:39.200Z,75.38
2022-12-04T20:17:40.947Z,74.68
2022-12-04T20:19:43.154Z,74.37
2022-12-04T20:21:46.214Z,74.65
2022-12-04T20:23:50.053Z,74.79
2022-12-04T20:25:55.071Z,73.69
2022-12-04T20:27:57.188Z,73.70
2022-12-04T20:29:59.215Z,75.12
2022-12-04T20:32:01.548Z,74.04
2022-12-04T20:34:06.667Z,75.78
2022-12-04T20:36:10.413Z,74.84
2022-12-04T20:38:13.514Z,73.54
2022-12-04T20:40:15.496Z,73.69
2022-12-04T20:42:17.692Z,73.29
2022-12-04T20:44:20.839Z,73.58
2022-12-04T20:46:25.093Z,74.14
2022-12-04T20:48:28.918Z,72.82
2022-12-04T20:50:33.185Z,73.66
2022-12-04T20:52:35.382Z,74.84
2022-12-04T20:54:41.548Z,74.15
2022-12-04T20:56:44.116Z,73.98
2022-12-04T20:58:46.297Z,73.01
2022-12-04T21:00:48.530Z,73.13
2022-12-04T21:02:52.854Z,71.94
2022-12-04T21:04:55.162Z,72.57
2022-12-04T21:06:57.759Z,72.79
2022-12-04T21:09:02.152Z,72.18
2022-12-04T21:11:04.507Z,72.75
2022-12-04T21:13:25.858Z,73.92
2022-12-04T21:15:46.969Z,74.26
2022-12-04T21:17:48.912Z,73.78
2022-12-04T21:19:51.161Z,73.50
2022-12-04T21:21:53.761Z,73.64
2022-12-04T21:23:55.550Z,72.69
2022-12-04T21:25:57.763Z,72.20
2022-12-04T21:27:59.599Z,71.70
2022-12-04T21:30:03.786Z,72.63
2022-12-04T21:32:07.032Z,74.32
2022-12-04T21:34:11.435Z,74.00
2022-12-04T21:36:14.262Z,73.37
2022-12-04T21:38:16.098Z,73.10
2022-12-04T21:40:18.057Z,72.66
2022-12-04T21:42:32.809Z,71.63
2022-12-04T21:44:36.236Z,72.88
2022-12-04T21:46:38.592Z,73.15
2022-12-04T21:48:40.933Z,72.64
2022-12-04T21:50:44.975Z,72.56
2022-12-04T21:52:47.240Z,72.06
2022-12-04T21:54:50.702Z,73.23
2022-12-04T21:56:52.505Z,72.21
2022-12-04T21:58:55.303Z,72.07
2022-12-04T22:00:57.095Z,71.17
2022-12-04T22:02:59.829Z,72.89
2022-12-04T22:05:03.530Z,73.04
2022-12-04T22:07:11.590Z,74.41
2022-12-04T22:09:15.451Z,73.34
2022-12-04T22:11:18.807Z,73.36
2022-12-04T22:13:20.844Z,73.98
2022-12-04T22:15:22.670Z,72.72
2022-12-04T22:17:29.627Z,73.74
2022-12-04T22:19:33.147Z,74.36
2022-12-04T22:21:35.512Z,73.38
2022-12-04T22:23:37.866Z,73.62
2022-12-04T22:25:39.757Z,73.82
2022-12-04T22:27:41.568Z,71.94
2022-12-04T22:29:51.504Z,73.49
2022-12-04T22:31:55.798Z,73.02
2022-12-04T22:34:00.661Z,72.51
2022-12-04T22:36:11.350Z,73.80
2022-12-04T22:38:13.172Z,73.51
2022-12-04T22:40:15.707Z,73.68
2022-12-04T22:42:17.594Z,73.76
2022-12-04T22:44:19.359Z,74.64
2022-12-04T22:46:21.714Z,73.91
2022-12-04T22:48:24.840Z,73.65
2022-12-04T22:50:26.659Z,75.61
2022-12-04T22:52:32.397Z,74.71
2022-12-04T22:54:34.234Z,75.08
2022-12-04T22:56:36.098Z,73.66
2022-12-04T22:58:39.058Z,73.68
2022-12-04T23:00:40.942Z,72.01
2022-12-04T23:02:42.774Z,71.48
2022-12-04T23:04:45.205Z,71.93
2022-12-04T23:06:47.045Z,72.87
2022-12-04T23:08:49.517Z,73.29
2022-12-04T23:10:51.730Z,75.13
2022-12-04T23:12:53.535Z,73.89
2022-12-04T23:14:55.358Z,75.76
2022-12-04T23:16:57.552Z,74.72
2022-12-04T23:18:59.419Z,74.13
2022-12-04T23:21:10.106Z,75.15
2022-12-04T23:23:12.291Z,73.15
2022-12-04T23:25:15.125Z,73.15
2022-12-04T23:27:17.264Z,74.28
2022-12-04T23:29:44.973Z,72.31
2022-12-04T23:31:41.271Z,71.82
2022-12-04T23:33:43.319Z,72.06
2022-12-04T23:35:45.213Z,72.32
2022-12-04T23:37:47.335Z,73.07
2022-12-04T23:39:49.181Z,74.35
2022-12-04T23:41:51.020Z,75.17
2022-12-04T23:43:54.227Z,74.08
2022-12-04T23:45:56.442Z,73.65
2022-12-04T23:47:58.347Z,72.55
2022-12-04T23:50:00.723Z,73.51
2022-12-04T23:52:02.473Z,72.10
2022-12-04T23:54:04.508Z,73.56
2022-12-04T23:56:12.894Z,72.67
2022-12-04T23:58:14.659Z,73.35
